sensor_id;sensor_type;location;lat;lon;timestamp;P1;durP1;ratioP1;P2;durP2;ratioP2
74223;SDS011;62585;49.706;18.216;2022-07-29T10:04:05;9.43;;;5.55;;
74223;SDS011;62585;49.706;18.216;2022-07-29T10:06:30;11.07;;;6.25;;
74223;SDS011;62585;49.706;18.216;2022-07-29T10:09:17;12.40;;;6.38;;
74223;SDS011;62585;49.706;18.216;2022-07-29T10:11:42;10.50;;;5.75;;
74223;SDS011;62585;49.706;18.216;2022-07-29T10:14:27;9.38;;;6.10;;
74223;SDS011;62585;49.706;18.216;2022-07-29T10:16:53;12.93;;;6.57;;
74223;SDS011;62585;49.706;18.216;2022-07-29T10:19:18;10.95;;;6.15;;
74223;SDS011;62585;49.706;18.216;2022-07-29T10:21:44;7.82;;;5.57;;
74223;SDS011;62585;49.706;18.216;2022-07-29T10:24:10;9.52;;;5.75;;
74223;SDS011;62585;49.706;18.216;2022-07-29T10:26:36;9.23;;;6.05;;
74223;SDS011;62585;49.706;18.216;2022-07-29T10:29:04;7.55;;;6.72;;
74223;SDS011;62585;49.706;18.216;2022-07-29T10:31:34;7.82;;;5.90;;
74223;SDS011;62585;49.706;18.216;2022-07-29T10:37:19;9.13;;;5.63;;
74223;SDS011;62585;49.706;18.216;2022-07-29T10:43:07;7.60;;;5.95;;
74223;SDS011;62585;49.706;18.216;2022-07-29T10:45:43;9.13;;;5.68;;
74223;SDS011;62585;49.706;18.216;2022-07-29T10:48:10;9.95;;;5.55;;
74223;SDS011;62585;49.706;18.216;2022-07-29T10:53:49;8.75;;;5.70;;
74223;SDS011;62585;49.706;18.216;2022-07-29T10:56:29;11.20;;;6.13;;
74223;SDS011;62585;49.706;18.216;2022-07-29T11:01:44;8.52;;;5.45;;
74223;SDS011;62585;49.706;18.216;2022-07-29T11:04:11;9.48;;;6.05;;
74223;SDS011;62585;49.706;18.216;2022-07-29T11:09:30;8.18;;;5.72;;
74223;SDS011;62585;49.706;18.216;2022-07-29T11:11:56;11.85;;;6.03;;
74223;SDS011;62585;49.706;18.216;2022-07-29T11:17:19;11.20;;;5.82;;
74223;SDS011;62585;49.706;18.216;2022-07-29T11:19:45;9.15;;;6.50;;
74223;SDS011;62585;49.706;18.216;2022-07-29T11:22:11;7.22;;;6.30;;
74223;SDS011;62585;49.706;18.216;2022-07-29T11:25:13;8.75;;;5.88;;
74223;SDS011;62585;49.706;18.216;2022-07-29T11:27:39;11.95;;;6.40;;
74223;SDS011;62585;49.706;18.216;2022-07-29T11:30:05;9.13;;;6.00;;
74223;SDS011;62585;49.706;18.216;2022-07-29T11:32:35;7.10;;;5.75;;
74223;SDS011;62585;49.706;18.216;2022-07-29T11:35:21;6.63;;;5.50;;
74223;SDS011;62585;49.706;18.216;2022-07-29T11:44:00;14.10;;;6.57;;
74223;SDS011;62585;49.706;18.216;2022-07-29T11:51:12;9.05;;;6.30;;
74223;SDS011;62585;49.706;18.216;2022-07-29T11:53:39;9.95;;;6.20;;
74223;SDS011;62585;49.706;18.216;2022-07-29T11:56:07;9.77;;;6.75;;
74223;SDS011;62585;49.706;18.216;2022-07-29T12:01:33;7.90;;;6.22;;
74223;SDS011;62585;49.706;18.216;2022-07-29T12:04:18;11.60;;;6.47;;
74223;SDS011;62585;49.706;18.216;2022-07-29T12:06:53;10.88;;;5.90;;
74223;SDS011;62585;49.706;18.216;2022-07-29T12:09:20;8.40;;;6.35;;
74223;SDS011;62585;49.706;18.216;2022-07-29T12:11:47;8.90;;;6.45;;
74223;SDS011;62585;49.706;18.216;2022-07-29T12:14:33;9.93;;;6.90;;
74223;SDS011;62585;49.706;18.216;2022-07-29T12:17:01;8.43;;;6.18;;
74223;SDS011;62585;49.706;18.216;2022-07-29T12:19:30;8.55;;;6.97;;
74223;SDS011;62585;49.706;18.216;2022-07-29T12:22:08;10.50;;;6.57;;
74223;SDS011;62585;49.706;18.216;2022-07-29T12:24:43;7.57;;;6.47;;
74223;SDS011;62585;49.706;18.216;2022-07-29T12:27:10;9.18;;;6.50;;
74223;SDS011;62585;49.706;18.216;2022-07-29T12:32:03;11.27;;;6.65;;
74223;SDS011;62585;49.706;18.216;2022-07-29T12:34:31;6.70;;;5.65;;
74223;SDS011;62585;49.706;18.216;2022-07-29T12:37:00;10.05;;;6.40;;
74223;SDS011;62585;49.706;18.216;2022-07-29T12:39:26;9.68;;;6.15;;
74223;SDS011;62585;49.706;18.216;2022-07-29T12:41:53;8.25;;;6.00;;
74223;SDS011;62585;49.706;18.216;2022-07-29T12:44:19;8.32;;;6.38;;
74223;SDS011;62585;49.706;18.216;2022-07-29T12:47:11;7.97;;;5.95;;
74223;SDS011;62585;49.706;18.216;2022-07-29T12:49:37;8.63;;;6.63;;
74223;SDS011;62585;49.706;18.216;2022-07-29T12:55:01;9.52;;;6.60;;
74223;SDS011;62585;49.706;18.216;2022-07-29T12:57:29;8.60;;;6.00;;
74223;SDS011;62585;49.706;18.216;2022-07-29T13:00:07;9.70;;;6.82;;
74223;SDS011;62585;49.706;18.216;2022-07-29T13:02:37;8.07;;;5.80;;
74223;SDS011;62585;49.706;18.216;2022-07-29T13:05:03;10.18;;;6.00;;
74223;SDS011;62585;49.706;18.216;2022-07-29T13:07:32;10.20;;;5.65;;
74223;SDS011;62585;49.706;18.216;2022-07-29T13:15:34;8.38;;;6.15;;
74223;SDS011;62585;49.706;18.216;2022-07-29T13:18:01;11.90;;;5.95;;
74223;SDS011;62585;49.706;18.216;2022-07-29T13:22:58;7.38;;;6.07;;
74223;SDS011;62585;49.706;18.216;2022-07-29T13:25:26;7.72;;;6.47;;
74223;SDS011;62585;49.706;18.216;2022-07-29T13:27:53;10.90;;;6.32;;
74223;SDS011;62585;49.706;18.216;2022-07-29T13:30:20;6.75;;;5.78;;
74223;SDS011;62585;49.706;18.216;2022-07-29T13:32:47;6.80;;;5.95;;
74223;SDS011;62585;49.706;18.216;2022-07-29T13:35:13;10.55;;;6.28;;
74223;SDS011;62585;49.706;18.216;2022-07-29T13:37:40;9.65;;;6.07;;
74223;SDS011;62585;49.706;18.216;2022-07-29T13:40:06;9.27;;;6.75;;
74223;SDS011;62585;49.706;18.216;2022-07-29T13:42:42;8.63;;;6.50;;
74223;SDS011;62585;49.706;18.216;2022-07-29T13:45:09;7.88;;;6.10;;
74223;SDS011;62585;49.706;18.216;2022-07-29T13:47:36;9.52;;;6.70;;
74223;SDS011;62585;49.706;18.216;2022-07-29T13:50:03;8.35;;;6.80;;
74223;SDS011;62585;49.706;18.216;2022-07-29T13:52:30;8.50;;;6.60;;
74223;SDS011;62585;49.706;18.216;2022-07-29T13:54:56;9.23;;;6.47;;
74223;SDS011;62585;49.706;18.216;2022-07-29T13:57:22;8.55;;;6.40;;
74223;SDS011;62585;49.706;18.216;2022-07-29T13:59:48;6.97;;;6.13;;
74223;SDS011;62585;49.706;18.216;2022-07-29T14:02:16;7.07;;;6.18;;
74223;SDS011;62585;49.706;18.216;2022-07-29T14:04:43;10.50;;;6.05;;
74223;SDS011;62585;49.706;18.216;2022-07-29T14:07:09;8.23;;;5.60;;
74223;SDS011;62585;49.706;18.216;2022-07-29T14:19:50;6.65;;;5.65;;
74223;SDS011;62585;49.706;18.216;2022-07-29T14:22:16;7.72;;;6.25;;
74223;SDS011;62585;49.706;18.216;2022-07-29T14:24:44;10.52;;;6.28;;
74223;SDS011;62585;49.706;18.216;2022-07-29T14:27:10;6.97;;;5.90;;
74223;SDS011;62585;49.706;18.216;2022-07-29T14:29:37;8.05;;;5.75;;
74223;SDS011;62585;49.706;18.216;2022-07-29T14:32:03;6.40;;;5.80;;
74223;SDS011;62585;49.706;18.216;2022-07-29T14:34:34;9.95;;;5.95;;
74223;SDS011;62585;49.706;18.216;2022-07-29T14:37:01;6.53;;;5.82;;
74223;SDS011;62585;49.706;18.216;2022-07-29T14:39:28;7.90;;;6.20;;
74223;SDS011;62585;49.706;18.216;2022-07-29T14:41:54;10.30;;;6.28;;
74223;SDS011;62585;49.706;18.216;2022-07-29T14:44:20;7.10;;;5.90;;
74223;SDS011;62585;49.706;18.216;2022-07-29T14:46:46;7.95;;;5.55;;
74223;SDS011;62585;49.706;18.216;2022-07-29T14:49:12;6.03;;;5.40;;
74223;SDS011;62585;49.706;18.216;2022-07-29T14:51:38;7.28;;;5.72;;
74223;SDS011;62585;49.706;18.216;2022-07-29T14:54:03;8.02;;;5.70;;
74223;SDS011;62585;49.706;18.216;2022-07-29T14:56:29;6.05;;;5.45;;
74223;SDS011;62585;49.706;18.216;2022-07-29T14:58:56;7.93;;;5.82;;
74223;SDS011;62585;49.706;18.216;2022-07-29T15:01:22;6.95;;;5.72;;
74223;SDS011;62585;49.706;18.216;2022-07-29T15:03:49;8.98;;;6.03;;
74223;SDS011;62585;49.706;18.216;2022-07-29T15:06:16;6.80;;;6.05;;
74223;SDS011;62585;49.706;18.216;2022-07-29T15:08:41;6.55;;;5.40;;
74223;SDS011;62585;49.706;18.216;2022-07-29T15:11:07;10.02;;;5.97;;
74223;SDS011;62585;49.706;18.216;2022-07-29T15:13:34;6.50;;;5.90;;
74223;SDS011;62585;49.706;18.216;2022-07-29T15:16:00;9.10;;;6.00;;
74223;SDS011;62585;49.706;18.216;2022-07-29T15:18:25;7.15;;;5.25;;
74223;SDS011;62585;49.706;18.216;2022-07-29T15:20:51;6.25;;;5.45;;
74223;SDS011;62585;49.706;18.216;2022-07-29T15:23:17;7.85;;;6.10;;
74223;SDS011;62585;49.706;18.216;2022-07-29T15:25:43;7.13;;;5.25;;
74223;SDS011;62585;49.706;18.216;2022-07-29T15:28:09;7.10;;;6.07;;
74223;SDS011;62585;49.706;18.216;2022-07-29T15:30:35;7.63;;;5.45;;
74223;SDS011;62585;49.706;18.216;2022-07-29T15:33:06;6.70;;;6.03;;
74223;SDS011;62585;49.706;18.216;2022-07-29T15:35:34;7.57;;;6.03;;
74223;SDS011;62585;49.706;18.216;2022-07-29T15:40:26;7.68;;;5.30;;
74223;SDS011;62585;49.706;18.216;2022-07-29T15:42:52;7.20;;;5.22;;
74223;SDS011;62585;49.706;18.216;2022-07-29T15:45:18;7.68;;;5.38;;
74223;SDS011;62585;49.706;18.216;2022-07-29T15:47:44;8.95;;;5.70;;
74223;SDS011;62585;49.706;18.216;2022-07-29T15:50:10;7.82;;;5.20;;
74223;SDS011;62585;49.706;18.216;2022-07-29T15:52:40;10.20;;;5.38;;
74223;SDS011;62585;49.706;18.216;2022-07-29T15:55:06;9.25;;;5.35;;
74223;SDS011;62585;49.706;18.216;2022-07-29T15:57:33;9.35;;;5.78;;
74223;SDS011;62585;49.706;18.216;2022-07-29T15:59:58;9.88;;;5.72;;
74223;SDS011;62585;49.706;18.216;2022-07-29T16:02:24;12.30;;;6.70;;
74223;SDS011;62585;49.706;18.216;2022-07-29T16:04:50;9.70;;;6.68;;
74223;SDS011;62585;49.706;18.216;2022-07-29T16:07:16;11.23;;;6.47;;
74223;SDS011;62585;49.706;18.216;2022-07-29T16:09:43;11.65;;;7.40;;
74223;SDS011;62585;49.706;18.216;2022-07-29T16:12:09;7.68;;;6.63;;
74223;SDS011;62585;49.706;18.216;2022-07-29T16:14:35;9.57;;;6.63;;
74223;SDS011;62585;49.706;18.216;2022-07-29T16:17:00;8.75;;;5.75;;
74223;SDS011;62585;49.706;18.216;2022-07-29T16:19:28;8.18;;;5.95;;
74223;SDS011;62585;49.706;18.216;2022-07-29T16:24:20;7.95;;;5.80;;
74223;SDS011;62585;49.706;18.216;2022-07-29T16:26:46;8.07;;;5.68;;
74223;SDS011;62585;49.706;18.216;2022-07-29T16:29:12;6.88;;;5.43;;
74223;SDS011;62585;49.706;18.216;2022-07-29T16:31:38;8.63;;;6.25;;
74223;SDS011;62585;49.706;18.216;2022-07-29T16:34:04;7.85;;;6.05;;
74223;SDS011;62585;49.706;18.216;2022-07-29T16:36:30;8.68;;;6.72;;
74223;SDS011;62585;49.706;18.216;2022-07-29T16:38:55;7.32;;;6.28;;
74223;SDS011;62585;49.706;18.216;2022-07-29T16:41:21;9.18;;;6.57;;
74223;SDS011;62585;49.706;18.216;2022-07-29T16:43:47;11.20;;;7.25;;
74223;SDS011;62585;49.706;18.216;2022-07-29T16:46:13;7.97;;;7.18;;
74223;SDS011;62585;49.706;18.216;2022-07-29T16:48:39;9.63;;;6.47;;
74223;SDS011;62585;49.706;18.216;2022-07-29T16:51:05;9.68;;;6.18;;
74223;SDS011;62585;49.706;18.216;2022-07-29T16:53:31;7.47;;;5.50;;
74223;SDS011;62585;49.706;18.216;2022-07-29T16:55:57;9.10;;;6.38;;
74223;SDS011;62585;49.706;18.216;2022-07-29T16:58:23;8.00;;;6.15;;
74223;SDS011;62585;49.706;18.216;2022-07-29T17:00:49;10.27;;;6.22;;
74223;SDS011;62585;49.706;18.216;2022-07-29T17:03:14;8.63;;;5.75;;
74223;SDS011;62585;49.706;18.216;2022-07-29T17:05:40;6.53;;;5.43;;
74223;SDS011;62585;49.706;18.216;2022-07-29T17:08:06;10.85;;;5.93;;
74223;SDS011;62585;49.706;18.216;2022-07-29T17:10:32;6.55;;;5.53;;
74223;SDS011;62585;49.706;18.216;2022-07-29T17:12:58;6.93;;;5.28;;
74223;SDS011;62585;49.706;18.216;2022-07-29T17:15:24;8.88;;;5.95;;
74223;SDS011;62585;49.706;18.216;2022-07-29T17:17:50;6.72;;;5.30;;
74223;SDS011;62585;49.706;18.216;2022-07-29T17:20:16;8.45;;;5.38;;
74223;SDS011;62585;49.706;18.216;2022-07-29T17:22:42;8.35;;;5.65;;
74223;SDS011;62585;49.706;18.216;2022-07-29T17:25:08;5.75;;;4.45;;
74223;SDS011;62585;49.706;18.216;2022-07-29T17:27:34;4.10;;;3.67;;
74223;SDS011;62585;49.706;18.216;2022-07-29T17:30:00;4.63;;;4.15;;
74223;SDS011;62585;49.706;18.216;2022-07-29T17:32:27;4.40;;;3.47;;
74223;SDS011;62585;49.706;18.216;2022-07-29T17:34:53;7.57;;;2.60;;
74223;SDS011;62585;49.706;18.216;2022-07-29T17:37:19;4.00;;;2.75;;
74223;SDS011;62585;49.706;18.216;2022-07-29T17:39:45;3.78;;;2.60;;
74223;SDS011;62585;49.706;18.216;2022-07-29T17:42:12;3.50;;;2.65;;
74223;SDS011;62585;49.706;18.216;2022-07-29T17:44:38;3.28;;;2.80;;
74223;SDS011;62585;49.706;18.216;2022-07-29T17:49:31;3.78;;;2.97;;
74223;SDS011;62585;49.706;18.216;2022-07-29T17:51:57;5.78;;;3.08;;
74223;SDS011;62585;49.706;18.216;2022-07-29T17:54:23;4.13;;;2.97;;
74223;SDS011;62585;49.706;18.216;2022-07-29T17:56:49;4.78;;;2.88;;
74223;SDS011;62585;49.706;18.216;2022-07-29T17:59:15;6.55;;;2.95;;
74223;SDS011;62585;49.706;18.216;2022-07-29T18:01:41;7.18;;;3.47;;
74223;SDS011;62585;49.706;18.216;2022-07-29T18:04:07;5.50;;;3.85;;
74223;SDS011;62585;49.706;18.216;2022-07-29T18:08:59;5.95;;;3.97;;
74223;SDS011;62585;49.706;18.216;2022-07-29T18:11:25;6.78;;;3.85;;
74223;SDS011;62585;49.706;18.216;2022-07-29T18:13:51;6.90;;;5.40;;
74223;SDS011;62585;49.706;18.216;2022-07-29T18:16:17;6.20;;;4.10;;
74223;SDS011;62585;49.706;18.216;2022-07-29T18:18:44;8.05;;;5.65;;
74223;SDS011;62585;49.706;18.216;2022-07-29T18:21:10;10.07;;;6.90;;
74223;SDS011;62585;49.706;18.216;2022-07-29T18:23:36;6.15;;;4.10;;
74223;SDS011;62585;49.706;18.216;2022-07-29T18:26:01;6.38;;;4.65;;
74223;SDS011;62585;49.706;18.216;2022-07-29T18:28:27;7.85;;;4.30;;
74223;SDS011;62585;49.706;18.216;2022-07-29T18:30:53;8.05;;;4.78;;
74223;SDS011;62585;49.706;18.216;2022-07-29T18:33:19;7.45;;;4.63;;
74223;SDS011;62585;49.706;18.216;2022-07-29T18:35:45;5.60;;;4.50;;
74223;SDS011;62585;49.706;18.216;2022-07-29T18:38:13;6.05;;;4.32;;
74223;SDS011;62585;49.706;18.216;2022-07-29T18:40:38;6.75;;;4.53;;
74223;SDS011;62585;49.706;18.216;2022-07-29T18:43:09;6.18;;;4.35;;
74223;SDS011;62585;49.706;18.216;2022-07-29T18:45:36;7.03;;;4.45;;
74223;SDS011;62585;49.706;18.216;2022-07-29T18:48:03;5.82;;;4.38;;
74223;SDS011;62585;49.706;18.216;2022-07-29T18:50:30;5.88;;;4.85;;
74223;SDS011;62585;49.706;18.216;2022-07-29T18:52:57;4.97;;;4.38;;
74223;SDS011;62585;49.706;18.216;2022-07-29T18:55:23;5.63;;;4.57;;
74223;SDS011;62585;49.706;18.216;2022-07-29T18:57:50;8.02;;;5.45;;
74223;SDS011;62585;49.706;18.216;2022-07-29T19:00:16;5.53;;;4.93;;
74223;SDS011;62585;49.706;18.216;2022-07-29T19:02:41;5.40;;;4.82;;
74223;SDS011;62585;49.706;18.216;2022-07-29T19:05:08;5.32;;;4.78;;
74223;SDS011;62585;49.706;18.216;2022-07-29T19:07:34;7.93;;;5.78;;
74223;SDS011;62585;49.706;18.216;2022-07-29T19:10:01;10.65;;;6.57;;
74223;SDS011;62585;49.706;18.216;2022-07-29T19:14:53;8.40;;;5.28;;
74223;SDS011;62585;49.706;18.216;2022-07-29T19:17:19;8.85;;;6.22;;
74223;SDS011;62585;49.706;18.216;2022-07-29T19:19:45;13.48;;;7.30;;
74223;SDS011;62585;49.706;18.216;2022-07-29T19:22:11;10.88;;;6.65;;
74223;SDS011;62585;49.706;18.216;2022-07-29T19:24:38;10.57;;;6.80;;
74223;SDS011;62585;49.706;18.216;2022-07-29T19:27:04;13.95;;;7.68;;
74223;SDS011;62585;49.706;18.216;2022-07-29T19:29:30;10.07;;;7.82;;
74223;SDS011;62585;49.706;18.216;2022-07-29T19:31:57;9.90;;;7.68;;
74223;SDS011;62585;49.706;18.216;2022-07-29T19:34:25;10.98;;;7.95;;
74223;SDS011;62585;49.706;18.216;2022-07-29T19:36:51;10.90;;;8.23;;
74223;SDS011;62585;49.706;18.216;2022-07-29T19:39:17;10.85;;;7.72;;
74223;SDS011;62585;49.706;18.216;2022-07-29T19:41:43;9.73;;;7.90;;
74223;SDS011;62585;49.706;18.216;2022-07-29T19:44:09;12.68;;;9.00;;
74223;SDS011;62585;49.706;18.216;2022-07-29T19:46:35;11.93;;;8.02;;
74223;SDS011;62585;49.706;18.216;2022-07-29T19:49:02;11.10;;;8.07;;
74223;SDS011;62585;49.706;18.216;2022-07-29T19:51:31;11.27;;;8.73;;
74223;SDS011;62585;49.706;18.216;2022-07-29T19:53:57;15.32;;;12.23;;
74223;SDS011;62585;49.706;18.216;2022-07-29T19:56:23;10.52;;;7.68;;
74223;SDS011;62585;49.706;18.216;2022-07-29T19:58:54;11.55;;;8.10;;
74223;SDS011;62585;49.706;18.216;2022-07-29T20:01:21;10.57;;;7.18;;
74223;SDS011;62585;49.706;18.216;2022-07-29T20:03:47;9.98;;;7.63;;
74223;SDS011;62585;49.706;18.216;2022-07-29T20:06:13;10.88;;;7.68;;
74223;SDS011;62585;49.706;18.216;2022-07-29T20:08:39;9.90;;;7.65;;
74223;SDS011;62585;49.706;18.216;2022-07-29T20:11:05;10.40;;;7.53;;
74223;SDS011;62585;49.706;18.216;2022-07-29T20:13:31;10.77;;;7.43;;
74223;SDS011;62585;49.706;18.216;2022-07-29T20:15:58;9.45;;;7.47;;
74223;SDS011;62585;49.706;18.216;2022-07-29T20:18:24;10.38;;;7.43;;
74223;SDS011;62585;49.706;18.216;2022-07-29T20:20:51;10.00;;;7.53;;
74223;SDS011;62585;49.706;18.216;2022-07-29T20:23:20;10.65;;;8.07;;
74223;SDS011;62585;49.706;18.216;2022-07-29T20:25:47;10.93;;;8.65;;
74223;SDS011;62585;49.706;18.216;2022-07-29T20:28:13;10.80;;;9.05;;
74223;SDS011;62585;49.706;18.216;2022-07-29T20:30:39;11.77;;;8.57;;
74223;SDS011;62585;49.706;18.216;2022-07-29T20:33:05;12.55;;;8.32;;
74223;SDS011;62585;49.706;18.216;2022-07-29T20:35:32;11.88;;;8.63;;
74223;SDS011;62585;49.706;18.216;2022-07-29T20:37:58;11.50;;;9.30;;
74223;SDS011;62585;49.706;18.216;2022-07-29T20:40:24;14.43;;;8.60;;
74223;SDS011;62585;49.706;18.216;2022-07-29T20:42:53;11.52;;;8.20;;
74223;SDS011;62585;49.706;18.216;2022-07-29T20:45:20;10.35;;;8.27;;
74223;SDS011;62585;49.706;18.216;2022-07-29T20:47:47;11.43;;;7.60;;
74223;SDS011;62585;49.706;18.216;2022-07-29T20:50:15;10.30;;;8.23;;
74223;SDS011;62585;49.706;18.216;2022-07-29T20:52:41;11.07;;;8.45;;
74223;SDS011;62585;49.706;18.216;2022-07-29T20:55:08;11.32;;;8.88;;
74223;SDS011;62585;49.706;18.216;2022-07-29T21:00:01;11.23;;;8.40;;
74223;SDS011;62585;49.706;18.216;2022-07-29T21:02:27;10.43;;;7.88;;
74223;SDS011;62585;49.706;18.216;2022-07-29T21:04:52;10.18;;;7.82;;
74223;SDS011;62585;49.706;18.216;2022-07-29T21:07:18;11.38;;;7.70;;
74223;SDS011;62585;49.706;18.216;2022-07-29T21:09:44;11.00;;;8.07;;
74223;SDS011;62585;49.706;18.216;2022-07-29T21:12:10;13.05;;;9.25;;
74223;SDS011;62585;49.706;18.216;2022-07-29T21:14:37;11.02;;;8.18;;
74223;SDS011;62585;49.706;18.216;2022-07-29T21:17:03;12.05;;;8.65;;
74223;SDS011;62585;49.706;18.216;2022-07-29T21:19:33;13.20;;;9.32;;
74223;SDS011;62585;49.706;18.216;2022-07-29T21:21:59;11.55;;;8.90;;
74223;SDS011;62585;49.706;18.216;2022-07-29T21:24:25;12.63;;;8.65;;
74223;SDS011;62585;49.706;18.216;2022-07-29T21:26:51;13.50;;;8.77;;
74223;SDS011;62585;49.706;18.216;2022-07-29T21:29:17;15.23;;;10.18;;
74223;SDS011;62585;49.706;18.216;2022-07-29T21:31:43;14.38;;;8.55;;
74223;SDS011;62585;49.706;18.216;2022-07-29T21:34:09;15.68;;;8.95;;
74223;SDS011;62585;49.706;18.216;2022-07-29T21:36:35;17.63;;;9.95;;
74223;SDS011;62585;49.706;18.216;2022-07-29T21:39:01;21.52;;;12.60;;
74223;SDS011;62585;49.706;18.216;2022-07-29T21:41:32;17.15;;;11.07;;
74223;SDS011;62585;49.706;18.216;2022-07-29T21:43:58;15.93;;;10.05;;
74223;SDS011;62585;49.706;18.216;2022-07-29T21:46:24;12.80;;;8.88;;
74223;SDS011;62585;49.706;18.216;2022-07-29T21:48:50;12.63;;;8.93;;
74223;SDS011;62585;49.706;18.216;2022-07-29T21:51:16;13.77;;;7.60;;
74223;SDS011;62585;49.706;18.216;2022-07-29T21:53:41;10.85;;;7.72;;
74223;SDS011;62585;49.706;18.216;2022-07-29T21:56:07;11.05;;;7.45;;
74223;SDS011;62585;49.706;18.216;2022-07-29T21:58:33;10.00;;;6.95;;
74223;SDS011;62585;49.706;18.216;2022-07-29T22:00:59;13.00;;;7.95;;
74223;SDS011;62585;49.706;18.216;2022-07-29T22:03:25;13.20;;;8.98;;
74223;SDS011;62585;49.706;18.216;2022-07-29T22:05:51;16.08;;;8.40;;
74223;SDS011;62585;49.706;18.216;2022-07-29T22:08:17;10.25;;;7.78;;
74223;SDS011;62585;49.706;18.216;2022-07-29T22:10:42;11.45;;;7.45;;
74223;SDS011;62585;49.706;18.216;2022-07-29T22:13:08;10.45;;;7.15;;
74223;SDS011;62585;49.706;18.216;2022-07-29T22:15:34;8.48;;;6.15;;
74223;SDS011;62585;49.706;18.216;2022-07-29T22:18:00;8.80;;;6.82;;
74223;SDS011;62585;49.706;18.216;2022-07-29T22:20:26;11.23;;;6.43;;
74223;SDS011;62585;49.706;18.216;2022-07-29T22:22:52;8.60;;;6.38;;
74223;SDS011;62585;49.706;18.216;2022-07-29T22:25:18;8.30;;;6.90;;
74223;SDS011;62585;49.706;18.216;2022-07-29T22:27:45;8.20;;;6.15;;
74223;SDS011;62585;49.706;18.216;2022-07-29T22:30:11;8.15;;;6.32;;
74223;SDS011;62585;49.706;18.216;2022-07-29T22:32:37;7.72;;;6.45;;
74223;SDS011;62585;49.706;18.216;2022-07-29T22:35:03;9.25;;;6.07;;
74223;SDS011;62585;49.706;18.216;2022-07-29T22:37:29;8.48;;;6.55;;
74223;SDS011;62585;49.706;18.216;2022-07-29T22:39:55;7.57;;;6.32;;
74223;SDS011;62585;49.706;18.216;2022-07-29T22:42:20;14.32;;;7.05;;
74223;SDS011;62585;49.706;18.216;2022-07-29T22:44:46;9.20;;;6.22;;
74223;SDS011;62585;49.706;18.216;2022-07-29T22:47:12;8.23;;;6.60;;
74223;SDS011;62585;49.706;18.216;2022-07-29T22:49:38;9.07;;;7.07;;
74223;SDS011;62585;49.706;18.216;2022-07-29T22:52:04;8.68;;;7.25;;
74223;SDS011;62585;49.706;18.216;2022-07-29T22:54:30;7.47;;;6.47;;
74223;SDS011;62585;49.706;18.216;2022-07-29T22:56:56;8.45;;;7.00;;
74223;SDS011;62585;49.706;18.216;2022-07-29T22:59:21;9.32;;;6.85;;
74223;SDS011;62585;49.706;18.216;2022-07-29T23:01:47;8.15;;;7.28;;
74223;SDS011;62585;49.706;18.216;2022-07-29T23:04:13;9.60;;;7.00;;
74223;SDS011;62585;49.706;18.216;2022-07-29T23:06:39;10.30;;;7.82;;
74223;SDS011;62585;49.706;18.216;2022-07-29T23:09:05;9.48;;;7.53;;
74223;SDS011;62585;49.706;18.216;2022-07-29T23:11:31;8.00;;;6.53;;
74223;SDS011;62585;49.706;18.216;2022-07-29T23:13:56;8.10;;;6.65;;
74223;SDS011;62585;49.706;18.216;2022-07-29T23:16:22;9.05;;;6.53;;
74223;SDS011;62585;49.706;18.216;2022-07-29T23:18:48;9.57;;;7.68;;
74223;SDS011;62585;49.706;18.216;2022-07-29T23:21:14;9.50;;;8.30;;
74223;SDS011;62585;49.706;18.216;2022-07-29T23:23:40;10.48;;;8.30;;
74223;SDS011;62585;49.706;18.216;2022-07-29T23:26:06;9.65;;;7.28;;
74223;SDS011;62585;49.706;18.216;2022-07-29T23:28:31;11.32;;;8.85;;
74223;SDS011;62585;49.706;18.216;2022-07-29T23:30:57;14.32;;;10.18;;
74223;SDS011;62585;49.706;18.216;2022-07-29T23:33:23;15.75;;;10.57;;
74223;SDS011;62585;49.706;18.216;2022-07-29T23:35:49;15.20;;;11.90;;
74223;SDS011;62585;49.706;18.216;2022-07-29T23:38:15;16.73;;;12.80;;
74223;SDS011;62585;49.706;18.216;2022-07-29T23:40:41;16.83;;;13.20;;
74223;SDS011;62585;49.706;18.216;2022-07-29T23:43:06;17.40;;;13.02;;
74223;SDS011;62585;49.706;18.216;2022-07-29T23:45:32;17.10;;;13.38;;
74223;SDS011;62585;49.706;18.216;2022-07-29T23:47:58;18.67;;;14.48;;
74223;SDS011;62585;49.706;18.216;2022-07-29T23:50:24;21.17;;;14.98;;
74223;SDS011;62585;49.706;18.216;2022-07-29T23:52:50;19.35;;;14.95;;
74223;SDS011;62585;49.706;18.216;2022-07-29T23:55:16;18.25;;;14.57;;
74223;SDS011;62585;49.706;18.216;2022-07-29T23:57:42;21.15;;;14.70;;
